sensor_id;sensor_type;location;lat;lon;timestamp;P1;durP1;ratioP1;P2;durP2;ratioP2
36449;SDS011;22475;51.390;7.180;2022-10-14T00:00:59;5.45;;;3.78;;
36449;SDS011;22475;51.390;7.180;2022-10-14T00:03:27;9.40;;;6.88;;
36449;SDS011;22475;51.390;7.180;2022-10-14T00:05:54;5.40;;;4.57;;
36449;SDS011;22475;51.390;7.180;2022-10-14T00:08:22;10.75;;;5.25;;
36449;SDS011;22475;51.390;7.180;2022-10-14T00:10:50;4.45;;;4.05;;
36449;SDS011;22475;51.390;7.180;2022-10-14T00:13:17;4.90;;;2.92;;
36449;SDS011;22475;51.390;7.180;2022-10-14T00:15:44;12.10;;;6.45;;
36449;SDS011;22475;51.390;7.180;2022-10-14T00:18:10;7.95;;;4.63;;
36449;SDS011;22475;51.390;7.180;2022-10-14T00:20:37;4.93;;;4.10;;
36449;SDS011;22475;51.390;7.180;2022-10-14T00:23:04;9.95;;;5.82;;
36449;SDS011;22475;51.390;7.180;2022-10-14T00:25:35;4.03;;;3.53;;
36449;SDS011;22475;51.390;7.180;2022-10-14T00:28:03;11.02;;;6.95;;
36449;SDS011;22475;51.390;7.180;2022-10-14T00:30:30;9.05;;;5.47;;
36449;SDS011;22475;51.390;7.180;2022-10-14T00:32:57;8.85;;;6.38;;
36449;SDS011;22475;51.390;7.180;2022-10-14T00:35:24;12.20;;;6.07;;
36449;SDS011;22475;51.390;7.180;2022-10-14T00:37:51;5.38;;;4.03;;
36449;SDS011;22475;51.390;7.180;2022-10-14T00:40:18;6.05;;;3.78;;
36449;SDS011;22475;51.390;7.180;2022-10-14T00:42:46;11.85;;;6.28;;
36449;SDS011;22475;51.390;7.180;2022-10-14T00:45:14;5.00;;;4.30;;
36449;SDS011;22475;51.390;7.180;2022-10-14T00:47:42;3.45;;;3.15;;
36449;SDS011;22475;51.390;7.180;2022-10-14T00:50:09;5.30;;;4.53;;
36449;SDS011;22475;51.390;7.180;2022-10-14T00:52:39;5.32;;;4.10;;
36449;SDS011;22475;51.390;7.180;2022-10-14T00:55:07;10.38;;;5.93;;
36449;SDS011;22475;51.390;7.180;2022-10-14T00:57:38;4.50;;;3.53;;
36449;SDS011;22475;51.390;7.180;2022-10-14T01:00:07;8.32;;;7.45;;
36449;SDS011;22475;51.390;7.180;2022-10-14T01:02:36;13.77;;;7.13;;
36449;SDS011;22475;51.390;7.180;2022-10-14T01:05:04;8.93;;;6.20;;
36449;SDS011;22475;51.390;7.180;2022-10-14T01:07:36;5.90;;;5.35;;
36449;SDS011;22475;51.390;7.180;2022-10-14T01:10:10;5.57;;;5.07;;
36449;SDS011;22475;51.390;7.180;2022-10-14T01:12:46;8.27;;;6.32;;
36449;SDS011;22475;51.390;7.180;2022-10-14T01:15:27;13.35;;;8.38;;
36449;SDS011;22475;51.390;7.180;2022-10-14T01:18:05;13.70;;;8.68;;
36449;SDS011;22475;51.390;7.180;2022-10-14T01:23:36;3.83;;;3.53;;
36449;SDS011;22475;51.390;7.180;2022-10-14T01:26:36;9.05;;;5.72;;
36449;SDS011;22475;51.390;7.180;2022-10-14T01:29:20;9.27;;;5.45;;
36449;SDS011;22475;51.390;7.180;2022-10-14T01:32:01;9.48;;;6.32;;
36449;SDS011;22475;51.390;7.180;2022-10-14T01:34:33;6.93;;;5.88;;
36449;SDS011;22475;51.390;7.180;2022-10-14T01:37:06;10.52;;;7.18;;
36449;SDS011;22475;51.390;7.180;2022-10-14T01:39:38;7.55;;;6.72;;
36449;SDS011;22475;51.390;7.180;2022-10-14T01:42:10;7.45;;;6.72;;
36449;SDS011;22475;51.390;7.180;2022-10-14T01:44:42;4.90;;;2.63;;
36449;SDS011;22475;51.390;7.180;2022-10-14T01:47:15;6.63;;;5.72;;
36449;SDS011;22475;51.390;7.180;2022-10-14T01:49:46;8.77;;;6.38;;
36449;SDS011;22475;51.390;7.180;2022-10-14T01:52:20;4.30;;;4.00;;
36449;SDS011;22475;51.390;7.180;2022-10-14T01:54:52;3.08;;;2.70;;
36449;SDS011;22475;51.390;7.180;2022-10-14T01:57:25;8.68;;;4.82;;
36449;SDS011;22475;51.390;7.180;2022-10-14T01:59:54;8.35;;;5.57;;
36449;SDS011;22475;51.390;7.180;2022-10-14T02:02:24;9.02;;;5.20;;
36449;SDS011;22475;51.390;7.180;2022-10-14T02:04:51;6.13;;;4.75;;
36449;SDS011;22475;51.390;7.180;2022-10-14T02:07:18;4.45;;;3.28;;
36449;SDS011;22475;51.390;7.180;2022-10-14T02:09:50;3.30;;;2.88;;
36449;SDS011;22475;51.390;7.180;2022-10-14T02:12:30;4.88;;;2.67;;
36449;SDS011;22475;51.390;7.180;2022-10-14T02:15:10;4.78;;;2.35;;
36449;SDS011;22475;51.390;7.180;2022-10-14T02:17:49;6.55;;;4.45;;
36449;SDS011;22475;51.390;7.180;2022-10-14T02:20:22;4.32;;;3.58;;
36449;SDS011;22475;51.390;7.180;2022-10-14T02:22:56;3.47;;;3.10;;
36449;SDS011;22475;51.390;7.180;2022-10-14T02:25:26;4.97;;;4.57;;
36449;SDS011;22475;51.390;7.180;2022-10-14T02:27:56;3.30;;;3.10;;
36449;SDS011;22475;51.390;7.180;2022-10-14T02:30:25;9.65;;;4.93;;
36449;SDS011;22475;51.390;7.180;2022-10-14T02:32:56;4.63;;;4.20;;
36449;SDS011;22475;51.390;7.180;2022-10-14T02:35:25;4.55;;;4.25;;
36449;SDS011;22475;51.390;7.180;2022-10-14T02:37:55;7.78;;;4.00;;
36449;SDS011;22475;51.390;7.180;2022-10-14T02:40:26;5.80;;;5.22;;
36449;SDS011;22475;51.390;7.180;2022-10-14T02:42:56;4.95;;;4.32;;
36449;SDS011;22475;51.390;7.180;2022-10-14T02:45:23;7.88;;;3.63;;
36449;SDS011;22475;51.390;7.180;2022-10-14T02:47:51;6.85;;;3.97;;
36449;SDS011;22475;51.390;7.180;2022-10-14T02:50:19;7.07;;;5.38;;
36449;SDS011;22475;51.390;7.180;2022-10-14T02:52:46;6.70;;;5.80;;
36449;SDS011;22475;51.390;7.180;2022-10-14T02:55:13;7.97;;;5.53;;
36449;SDS011;22475;51.390;7.180;2022-10-14T02:57:40;8.40;;;7.53;;
36449;SDS011;22475;51.390;7.180;2022-10-14T03:00:07;8.40;;;5.75;;
36449;SDS011;22475;51.390;7.180;2022-10-14T03:02:35;11.27;;;6.40;;
36449;SDS011;22475;51.390;7.180;2022-10-14T03:05:02;9.05;;;7.20;;
36449;SDS011;22475;51.390;7.180;2022-10-14T03:07:31;6.55;;;5.95;;
36449;SDS011;22475;51.390;7.180;2022-10-14T03:09:58;6.25;;;5.70;;
36449;SDS011;22475;51.390;7.180;2022-10-14T03:12:25;14.48;;;5.43;;
36449;SDS011;22475;51.390;7.180;2022-10-14T03:14:51;5.95;;;4.68;;
36449;SDS011;22475;51.390;7.180;2022-10-14T03:17:18;4.80;;;4.35;;
36449;SDS011;22475;51.390;7.180;2022-10-14T03:19:45;6.00;;;4.18;;
36449;SDS011;22475;51.390;7.180;2022-10-14T03:22:13;5.38;;;4.63;;
36449;SDS011;22475;51.390;7.180;2022-10-14T03:24:41;9.60;;;5.32;;
36449;SDS011;22475;51.390;7.180;2022-10-14T03:27:08;8.05;;;4.85;;
36449;SDS011;22475;51.390;7.180;2022-10-14T03:29:35;5.32;;;4.40;;
36449;SDS011;22475;51.390;7.180;2022-10-14T03:32:02;3.17;;;2.88;;
36449;SDS011;22475;51.390;7.180;2022-10-14T03:34:29;5.15;;;4.75;;
36449;SDS011;22475;51.390;7.180;2022-10-14T03:36:56;4.53;;;4.20;;
36449;SDS011;22475;51.390;7.180;2022-10-14T03:39:23;4.78;;;4.38;;
36449;SDS011;22475;51.390;7.180;2022-10-14T03:41:51;8.57;;;5.30;;
36449;SDS011;22475;51.390;7.180;2022-10-14T03:44:18;2.08;;;1.98;;
36449;SDS011;22475;51.390;7.180;2022-10-14T03:46:45;3.63;;;3.35;;
36449;SDS011;22475;51.390;7.180;2022-10-14T03:49:12;3.70;;;3.35;;
36449;SDS011;22475;51.390;7.180;2022-10-14T03:51:39;5.45;;;4.50;;
36449;SDS011;22475;51.390;7.180;2022-10-14T03:54:06;2.53;;;2.33;;
36449;SDS011;22475;51.390;7.180;2022-10-14T03:56:33;3.10;;;2.90;;
36449;SDS011;22475;51.390;7.180;2022-10-14T03:59:01;5.47;;;4.63;;
36449;SDS011;22475;51.390;7.180;2022-10-14T04:01:28;4.45;;;4.05;;
36449;SDS011;22475;51.390;7.180;2022-10-14T04:03:55;3.42;;;3.22;;
36449;SDS011;22475;51.390;7.180;2022-10-14T04:06:22;4.13;;;3.33;;
36449;SDS011;22475;51.390;7.180;2022-10-14T04:08:49;4.18;;;3.85;;
36449;SDS011;22475;51.390;7.180;2022-10-14T04:11:16;4.13;;;3.80;;
36449;SDS011;22475;51.390;7.180;2022-10-14T04:13:43;1.88;;;1.52;;
36449;SDS011;22475;51.390;7.180;2022-10-14T04:16:11;4.43;;;4.05;;
36449;SDS011;22475;51.390;7.180;2022-10-14T04:18:38;2.10;;;1.95;;
36449;SDS011;22475;51.390;7.180;2022-10-14T04:21:06;3.90;;;3.60;;
36449;SDS011;22475;51.390;7.180;2022-10-14T04:23:34;3.72;;;1.98;;
36449;SDS011;22475;51.390;7.180;2022-10-14T04:26:01;3.00;;;2.75;;
36449;SDS011;22475;51.390;7.180;2022-10-14T04:28:29;2.80;;;2.60;;
36449;SDS011;22475;51.390;7.180;2022-10-14T04:30:56;3.90;;;3.60;;
36449;SDS011;22475;51.390;7.180;2022-10-14T04:33:25;4.82;;;4.43;;
36449;SDS011;22475;51.390;7.180;2022-10-14T04:35:55;5.15;;;3.50;;
36449;SDS011;22475;51.390;7.180;2022-10-14T04:38:24;2.30;;;2.10;;
36449;SDS011;22475;51.390;7.180;2022-10-14T04:40:51;8.23;;;4.82;;
36449;SDS011;22475;51.390;7.180;2022-10-14T04:43:18;6.32;;;4.75;;
36449;SDS011;22475;51.390;7.180;2022-10-14T04:45:45;5.20;;;4.63;;
36449;SDS011;22475;51.390;7.180;2022-10-14T04:48:12;5.10;;;4.63;;
36449;SDS011;22475;51.390;7.180;2022-10-14T04:50:41;5.63;;;3.83;;
36449;SDS011;22475;51.390;7.180;2022-10-14T04:53:07;3.78;;;3.47;;
36449;SDS011;22475;51.390;7.180;2022-10-14T04:55:34;4.18;;;3.83;;
36449;SDS011;22475;51.390;7.180;2022-10-14T04:58:01;2.63;;;2.42;;
36449;SDS011;22475;51.390;7.180;2022-10-14T05:00:28;6.82;;;3.90;;
36449;SDS011;22475;51.390;7.180;2022-10-14T05:02:55;3.65;;;3.30;;
36449;SDS011;22475;51.390;7.180;2022-10-14T05:05:22;2.42;;;2.28;;
36449;SDS011;22475;51.390;7.180;2022-10-14T05:07:50;2.97;;;2.78;;
36449;SDS011;22475;51.390;7.180;2022-10-14T05:10:17;4.40;;;3.90;;
36449;SDS011;22475;51.390;7.180;2022-10-14T05:12:44;5.13;;;4.57;;
36449;SDS011;22475;51.390;7.180;2022-10-14T05:15:11;3.40;;;3.10;;
36449;SDS011;22475;51.390;7.180;2022-10-14T05:17:38;3.80;;;3.50;;
36449;SDS011;22475;51.390;7.180;2022-10-14T05:20:08;4.85;;;4.32;;
36449;SDS011;22475;51.390;7.180;2022-10-14T05:22:36;3.55;;;3.35;;
36449;SDS011;22475;51.390;7.180;2022-10-14T05:25:05;5.35;;;3.88;;
36449;SDS011;22475;51.390;7.180;2022-10-14T05:27:32;4.45;;;3.65;;
36449;SDS011;22475;51.390;7.180;2022-10-14T05:29:59;3.85;;;3.53;;
36449;SDS011;22475;51.390;7.180;2022-10-14T05:32:26;3.75;;;3.42;;
36449;SDS011;22475;51.390;7.180;2022-10-14T05:34:53;2.55;;;2.20;;
36449;SDS011;22475;51.390;7.180;2022-10-14T05:37:20;2.67;;;2.47;;
36449;SDS011;22475;51.390;7.180;2022-10-14T05:39:47;2.45;;;2.30;;
36449;SDS011;22475;51.390;7.180;2022-10-14T05:42:15;2.88;;;2.60;;
36449;SDS011;22475;51.390;7.180;2022-10-14T05:44:42;2.83;;;2.63;;
36449;SDS011;22475;51.390;7.180;2022-10-14T05:47:09;4.68;;;2.92;;
36449;SDS011;22475;51.390;7.180;2022-10-14T05:49:36;2.50;;;1.85;;
36449;SDS011;22475;51.390;7.180;2022-10-14T05:52:03;2.78;;;2.58;;
36449;SDS011;22475;51.390;7.180;2022-10-14T05:54:30;3.05;;;2.70;;
36449;SDS011;22475;51.390;7.180;2022-10-14T05:56:57;5.43;;;2.60;;
36449;SDS011;22475;51.390;7.180;2022-10-14T05:59:25;2.10;;;2.00;;
36449;SDS011;22475;51.390;7.180;2022-10-14T06:01:53;2.90;;;2.13;;
36449;SDS011;22475;51.390;7.180;2022-10-14T06:04:20;2.90;;;2.70;;
36449;SDS011;22475;51.390;7.180;2022-10-14T06:06:47;4.97;;;2.80;;
36449;SDS011;22475;51.390;7.180;2022-10-14T06:09:14;1.70;;;1.60;;
36449;SDS011;22475;51.390;7.180;2022-10-14T06:11:42;2.63;;;2.53;;
36449;SDS011;22475;51.390;7.180;2022-10-14T06:14:09;2.60;;;2.40;;
36449;SDS011;22475;51.390;7.180;2022-10-14T06:16:37;1.17;;;1.10;;
36449;SDS011;22475;51.390;7.180;2022-10-14T06:19:04;5.03;;;1.67;;
36449;SDS011;22475;51.390;7.180;2022-10-14T06:21:31;1.73;;;1.63;;
36449;SDS011;22475;51.390;7.180;2022-10-14T06:23:58;0.80;;;0.80;;
36449;SDS011;22475;51.390;7.180;2022-10-14T06:26:24;1.88;;;1.30;;
36449;SDS011;22475;51.390;7.180;2022-10-14T06:28:51;1.95;;;1.55;;
36449;SDS011;22475;51.390;7.180;2022-10-14T06:31:18;1.60;;;1.50;;
36449;SDS011;22475;51.390;7.180;2022-10-14T06:33:47;1.40;;;1.30;;
36449;SDS011;22475;51.390;7.180;2022-10-14T06:36:14;1.40;;;1.30;;
36449;SDS011;22475;51.390;7.180;2022-10-14T06:38:41;1.50;;;1.40;;
36449;SDS011;22475;51.390;7.180;2022-10-14T06:41:08;1.65;;;1.55;;
36449;SDS011;22475;51.390;7.180;2022-10-14T06:43:35;1.35;;;1.23;;
36449;SDS011;22475;51.390;7.180;2022-10-14T06:46:02;2.30;;;2.13;;
36449;SDS011;22475;51.390;7.180;2022-10-14T06:48:29;1.50;;;1.23;;
36449;SDS011;22475;51.390;7.180;2022-10-14T06:50:58;2.53;;;1.90;;
36449;SDS011;22475;51.390;7.180;2022-10-14T06:53:26;1.30;;;1.25;;
36449;SDS011;22475;51.390;7.180;2022-10-14T06:55:57;0.80;;;0.80;;
36449;SDS011;22475;51.390;7.180;2022-10-14T06:58:25;0.98;;;0.98;;
36449;SDS011;22475;51.390;7.180;2022-10-14T07:00:52;1.13;;;1.10;;
36449;SDS011;22475;51.390;7.180;2022-10-14T07:03:19;2.33;;;1.63;;
36449;SDS011;22475;51.390;7.180;2022-10-14T07:05:46;1.35;;;1.25;;
36449;SDS011;22475;51.390;7.180;2022-10-14T07:08:14;1.58;;;1.23;;
36449;SDS011;22475;51.390;7.180;2022-10-14T07:10:41;1.42;;;1.30;;
36449;SDS011;22475;51.390;7.180;2022-10-14T07:13:09;1.17;;;1.00;;
36449;SDS011;22475;51.390;7.180;2022-10-14T07:15:36;1.15;;;1.00;;
36449;SDS011;22475;51.390;7.180;2022-10-14T07:18:04;0.88;;;0.88;;
36449;SDS011;22475;51.390;7.180;2022-10-14T07:20:32;1.15;;;1.05;;
36449;SDS011;22475;51.390;7.180;2022-10-14T07:22:59;1.85;;;1.40;;
36449;SDS011;22475;51.390;7.180;2022-10-14T07:25:28;0.80;;;0.80;;
36449;SDS011;22475;51.390;7.180;2022-10-14T07:27:56;2.80;;;2.15;;
36449;SDS011;22475;51.390;7.180;2022-10-14T07:30:23;1.10;;;0.88;;
36449;SDS011;22475;51.390;7.180;2022-10-14T07:32:50;0.88;;;0.88;;
36449;SDS011;22475;51.390;7.180;2022-10-14T07:35:17;1.63;;;0.70;;
36449;SDS011;22475;51.390;7.180;2022-10-14T07:37:44;0.77;;;0.77;;
36449;SDS011;22475;51.390;7.180;2022-10-14T07:40:12;1.23;;;0.85;;
36449;SDS011;22475;51.390;7.180;2022-10-14T07:42:40;1.00;;;1.00;;
36449;SDS011;22475;51.390;7.180;2022-10-14T07:45:07;1.30;;;0.80;;
36449;SDS011;22475;51.390;7.180;2022-10-14T07:47:40;2.08;;;0.70;;
36449;SDS011;22475;51.390;7.180;2022-10-14T07:50:07;0.90;;;0.90;;
36449;SDS011;22475;51.390;7.180;2022-10-14T07:52:34;1.00;;;0.90;;
36449;SDS011;22475;51.390;7.180;2022-10-14T07:55:02;2.88;;;0.82;;
36449;SDS011;22475;51.390;7.180;2022-10-14T07:57:29;0.60;;;0.60;;
36449;SDS011;22475;51.390;7.180;2022-10-14T07:59:58;1.45;;;0.70;;
36449;SDS011;22475;51.390;7.180;2022-10-14T08:02:24;1.35;;;1.25;;
36449;SDS011;22475;51.390;7.180;2022-10-14T08:04:52;0.77;;;0.70;;
36449;SDS011;22475;51.390;7.180;2022-10-14T08:07:19;0.75;;;0.75;;
36449;SDS011;22475;51.390;7.180;2022-10-14T08:09:46;0.90;;;0.82;;
36449;SDS011;22475;51.390;7.180;2022-10-14T08:12:13;1.75;;;0.85;;
36449;SDS011;22475;51.390;7.180;2022-10-14T08:14:40;0.77;;;0.50;;
36449;SDS011;22475;51.390;7.180;2022-10-14T08:17:08;0.60;;;0.60;;
36449;SDS011;22475;51.390;7.180;2022-10-14T08:19:35;1.25;;;1.15;;
36449;SDS011;22475;51.390;7.180;2022-10-14T08:22:02;0.70;;;0.68;;
36449;SDS011;22475;51.390;7.180;2022-10-14T08:24:29;0.57;;;0.57;;
36449;SDS011;22475;51.390;7.180;2022-10-14T08:26:56;0.73;;;0.73;;
36449;SDS011;22475;51.390;7.180;2022-10-14T08:29:25;0.75;;;0.52;;
36449;SDS011;22475;51.390;7.180;2022-10-14T08:31:52;0.75;;;0.75;;
36449;SDS011;22475;51.390;7.180;2022-10-14T08:34:20;1.30;;;0.70;;
36449;SDS011;22475;51.390;7.180;2022-10-14T08:36:48;0.52;;;0.52;;
36449;SDS011;22475;51.390;7.180;2022-10-14T08:39:16;1.15;;;0.77;;
36449;SDS011;22475;51.390;7.180;2022-10-14T08:44:43;0.55;;;0.55;;
36449;SDS011;22475;51.390;7.180;2022-10-14T08:47:14;0.40;;;0.40;;
36449;SDS011;22475;51.390;7.180;2022-10-14T08:49:50;0.60;;;0.60;;
36449;SDS011;22475;51.390;7.180;2022-10-14T08:52:23;1.92;;;0.50;;
36449;SDS011;22475;51.390;7.180;2022-10-14T08:54:54;0.90;;;0.50;;
36449;SDS011;22475;51.390;7.180;2022-10-14T08:57:24;0.43;;;0.43;;
36449;SDS011;22475;51.390;7.180;2022-10-14T08:59:53;0.63;;;0.63;;
36449;SDS011;22475;51.390;7.180;2022-10-14T09:02:23;0.40;;;0.40;;
36449;SDS011;22475;51.390;7.180;2022-10-14T09:05:02;0.35;;;0.35;;
36449;SDS011;22475;51.390;7.180;2022-10-14T09:07:30;0.38;;;0.30;;
36449;SDS011;22475;51.390;7.180;2022-10-14T09:09:59;3.60;;;0.38;;
36449;SDS011;22475;51.390;7.180;2022-10-14T09:12:31;0.75;;;0.40;;
36449;SDS011;22475;51.390;7.180;2022-10-14T09:15:02;1.20;;;0.68;;
36449;SDS011;22475;51.390;7.180;2022-10-14T09:17:35;1.10;;;0.60;;
36449;SDS011;22475;51.390;7.180;2022-10-14T09:20:19;0.65;;;0.52;;
36449;SDS011;22475;51.390;7.180;2022-10-14T09:22:52;1.33;;;0.60;;
36449;SDS011;22475;51.390;7.180;2022-10-14T09:25:25;0.80;;;0.60;;
36449;SDS011;22475;51.390;7.180;2022-10-14T09:27:53;0.40;;;0.40;;
36449;SDS011;22475;51.390;7.180;2022-10-14T09:30:20;0.30;;;0.30;;
36449;SDS011;22475;51.390;7.180;2022-10-14T09:32:48;0.40;;;0.40;;
36449;SDS011;22475;51.390;7.180;2022-10-14T09:35:21;0.33;;;0.33;;
36449;SDS011;22475;51.390;7.180;2022-10-14T09:37:50;0.45;;;0.45;;
36449;SDS011;22475;51.390;7.180;2022-10-14T09:40:19;0.40;;;0.40;;
36449;SDS011;22475;51.390;7.180;2022-10-14T09:42:54;0.40;;;0.40;;
36449;SDS011;22475;51.390;7.180;2022-10-14T09:45:25;0.70;;;0.50;;
36449;SDS011;22475;51.390;7.180;2022-10-14T09:47:55;1.47;;;0.50;;
36449;SDS011;22475;51.390;7.180;2022-10-14T09:50:27;0.40;;;0.30;;
36449;SDS011;22475;51.390;7.180;2022-10-14T09:52:59;1.58;;;0.38;;
36449;SDS011;22475;51.390;7.180;2022-10-14T09:55:27;0.30;;;0.20;;
36449;SDS011;22475;51.390;7.180;2022-10-14T09:58:00;0.22;;;0.22;;
36449;SDS011;22475;51.390;7.180;2022-10-14T10:00:30;1.05;;;0.30;;
36449;SDS011;22475;51.390;7.180;2022-10-14T10:02:59;0.43;;;0.43;;
36449;SDS011;22475;51.390;7.180;2022-10-14T10:05:29;1.48;;;0.30;;
36449;SDS011;22475;51.390;7.180;2022-10-14T10:10:30;0.40;;;0.40;;
36449;SDS011;22475;51.390;7.180;2022-10-14T10:12:59;0.52;;;0.52;;
36449;SDS011;22475;51.390;7.180;2022-10-14T10:15:27;0.52;;;0.43;;
36449;SDS011;22475;51.390;7.180;2022-10-14T10:17:54;0.50;;;0.50;;
36449;SDS011;22475;51.390;7.180;2022-10-14T10:20:22;0.45;;;0.45;;
36449;SDS011;22475;51.390;7.180;2022-10-14T10:22:57;0.50;;;0.50;;
36449;SDS011;22475;51.390;7.180;2022-10-14T10:25:41;0.80;;;0.60;;
36449;SDS011;22475;51.390;7.180;2022-10-14T10:28:14;0.77;;;0.50;;
36449;SDS011;22475;51.390;7.180;2022-10-14T10:30:43;0.55;;;0.55;;
36449;SDS011;22475;51.390;7.180;2022-10-14T10:33:24;0.40;;;0.40;;
36449;SDS011;22475;51.390;7.180;2022-10-14T10:36:02;0.50;;;0.47;;
36449;SDS011;22475;51.390;7.180;2022-10-14T10:38:41;0.55;;;0.50;;
36449;SDS011;22475;51.390;7.180;2022-10-14T10:41:18;0.30;;;0.30;;
36449;SDS011;22475;51.390;7.180;2022-10-14T10:46:39;0.70;;;0.70;;
36449;SDS011;22475;51.390;7.180;2022-10-14T10:49:18;0.32;;;0.30;;
36449;SDS011;22475;51.390;7.180;2022-10-14T10:51:53;0.95;;;0.47;;
36449;SDS011;22475;51.390;7.180;2022-10-14T10:56:58;0.80;;;0.45;;
36449;SDS011;22475;51.390;7.180;2022-10-14T10:59:35;0.60;;;0.60;;
36449;SDS011;22475;51.390;7.180;2022-10-14T11:02:28;0.80;;;0.80;;
36449;SDS011;22475;51.390;7.180;2022-10-14T11:05:11;0.47;;;0.47;;
36449;SDS011;22475;51.390;7.180;2022-10-14T11:07:45;0.73;;;0.73;;
36449;SDS011;22475;51.390;7.180;2022-10-14T11:10:39;3.58;;;0.95;;
36449;SDS011;22475;51.390;7.180;2022-10-14T11:13:35;0.40;;;0.40;;
36449;SDS011;22475;51.390;7.180;2022-10-14T11:16:10;0.32;;;0.32;;
36449;SDS011;22475;51.390;7.180;2022-10-14T11:18:45;0.50;;;0.50;;
36449;SDS011;22475;51.390;7.180;2022-10-14T11:23:47;0.70;;;0.70;;
36449;SDS011;22475;51.390;7.180;2022-10-14T11:26:29;3.47;;;1.20;;
36449;SDS011;22475;51.390;7.180;2022-10-14T11:29:13;5.70;;;0.65;;
36449;SDS011;22475;51.390;7.180;2022-10-14T11:31:56;1.05;;;0.95;;
36449;SDS011;22475;51.390;7.180;2022-10-14T11:34:32;0.50;;;0.50;;
36449;SDS011;22475;51.390;7.180;2022-10-14T11:37:11;1.02;;;0.75;;
36449;SDS011;22475;51.390;7.180;2022-10-14T11:39:52;0.85;;;0.85;;
36449;SDS011;22475;51.390;7.180;2022-10-14T11:42:26;1.27;;;0.68;;
36449;SDS011;22475;51.390;7.180;2022-10-14T11:45:06;0.98;;;0.98;;
36449;SDS011;22475;51.390;7.180;2022-10-14T11:47:47;1.45;;;0.90;;
36449;SDS011;22475;51.390;7.180;2022-10-14T11:50:18;3.28;;;1.42;;
36449;SDS011;22475;51.390;7.180;2022-10-14T11:52:51;1.80;;;1.67;;
36449;SDS011;22475;51.390;7.180;2022-10-14T11:55:23;1.73;;;1.13;;
36449;SDS011;22475;51.390;7.180;2022-10-14T11:57:56;5.13;;;1.50;;
36449;SDS011;22475;51.390;7.180;2022-10-14T12:00:28;1.00;;;0.93;;
36449;SDS011;22475;51.390;7.180;2022-10-14T12:03:00;0.93;;;0.88;;
36449;SDS011;22475;51.390;7.180;2022-10-14T12:05:34;2.30;;;1.33;;
36449;SDS011;22475;51.390;7.180;2022-10-14T12:08:06;1.90;;;1.55;;
36449;SDS011;22475;51.390;7.180;2022-10-14T12:10:41;1.73;;;1.63;;
36449;SDS011;22475;51.390;7.180;2022-10-14T12:13:13;0.77;;;0.77;;
36449;SDS011;22475;51.390;7.180;2022-10-14T12:15:43;3.17;;;1.10;;
36449;SDS011;22475;51.390;7.180;2022-10-14T12:18:14;1.63;;;1.50;;
36449;SDS011;22475;51.390;7.180;2022-10-14T12:20:42;2.25;;;1.42;;
36449;SDS011;22475;51.390;7.180;2022-10-14T12:23:16;2.00;;;1.45;;
36449;SDS011;22475;51.390;7.180;2022-10-14T12:25:51;1.45;;;1.20;;
36449;SDS011;22475;51.390;7.180;2022-10-14T12:28:24;2.17;;;1.90;;
36449;SDS011;22475;51.390;7.180;2022-10-14T12:30:51;1.73;;;1.13;;
36449;SDS011;22475;51.390;7.180;2022-10-14T12:33:44;2.30;;;2.08;;
36449;SDS011;22475;51.390;7.180;2022-10-14T12:36:44;2.92;;;1.77;;
36449;SDS011;22475;51.390;7.180;2022-10-14T12:39:21;4.20;;;2.38;;
36449;SDS011;22475;51.390;7.180;2022-10-14T12:41:59;2.75;;;2.55;;
36449;SDS011;22475;51.390;7.180;2022-10-14T12:44:33;4.72;;;2.08;;
36449;SDS011;22475;51.390;7.180;2022-10-14T12:47:06;1.77;;;1.67;;
36449;SDS011;22475;51.390;7.180;2022-10-14T12:49:45;4.65;;;2.28;;
36449;SDS011;22475;51.390;7.180;2022-10-14T12:52:17;6.93;;;1.67;;
36449;SDS011;22475;51.390;7.180;2022-10-14T12:54:47;2.63;;;1.95;;
36449;SDS011;22475;51.390;7.180;2022-10-14T12:57:18;8.68;;;2.42;;
36449;SDS011;22475;51.390;7.180;2022-10-14T12:59:53;4.28;;;2.50;;
36449;SDS011;22475;51.390;7.180;2022-10-14T13:04:56;2.00;;;1.65;;
36449;SDS011;22475;51.390;7.180;2022-10-14T13:07:27;1.63;;;1.52;;
36449;SDS011;22475;51.390;7.180;2022-10-14T13:09:56;5.32;;;1.98;;
36449;SDS011;22475;51.390;7.180;2022-10-14T13:21:19;1.70;;;1.48;;
36449;SDS011;22475;51.390;7.180;2022-10-14T13:23:53;6.38;;;1.55;;
36449;SDS011;22475;51.390;7.180;2022-10-14T13:26:22;6.05;;;2.42;;
36449;SDS011;22475;51.390;7.180;2022-10-14T13:29:00;4.45;;;2.13;;
36449;SDS011;22475;51.390;7.180;2022-10-14T13:31:45;47.17;;;3.30;;
36449;SDS011;22475;51.390;7.180;2022-10-14T13:34:19;17.95;;;3.17;;
36449;SDS011;22475;51.390;7.180;2022-10-14T13:37:01;13.85;;;3.45;;
36449;SDS011;22475;51.390;7.180;2022-10-14T13:39:43;25.77;;;3.55;;
36449;SDS011;22475;51.390;7.180;2022-10-14T13:42:11;6.97;;;2.10;;
36449;SDS011;22475;51.390;7.180;2022-10-14T13:44:42;22.02;;;2.72;;
36449;SDS011;22475;51.390;7.180;2022-10-14T13:47:11;9.63;;;3.08;;
36449;SDS011;22475;51.390;7.180;2022-10-14T13:49:39;17.70;;;2.43;;
36449;SDS011;22475;51.390;7.180;2022-10-14T13:52:11;7.38;;;2.05;;
36449;SDS011;22475;51.390;7.180;2022-10-14T13:54:44;21.10;;;3.08;;
36449;SDS011;22475;51.390;7.180;2022-10-14T13:57:11;17.45;;;4.28;;
36449;SDS011;22475;51.390;7.180;2022-10-14T13:59:40;19.10;;;3.38;;
36449;SDS011;22475;51.390;7.180;2022-10-14T14:02:12;12.73;;;2.40;;
36449;SDS011;22475;51.390;7.180;2022-10-14T14:04:40;4.45;;;2.92;;
36449;SDS011;22475;51.390;7.180;2022-10-14T14:07:12;20.20;;;3.33;;
36449;SDS011;22475;51.390;7.180;2022-10-14T14:09:46;19.73;;;2.90;;
36449;SDS011;22475;51.390;7.180;2022-10-14T14:12:15;14.38;;;3.15;;
36449;SDS011;22475;51.390;7.180;2022-10-14T14:14:43;11.07;;;2.60;;
36449;SDS011;22475;51.390;7.180;2022-10-14T14:17:13;17.95;;;3.05;;
36449;SDS011;22475;51.390;7.180;2022-10-14T14:19:44;31.25;;;3.17;;
36449;SDS011;22475;51.390;7.180;2022-10-14T14:22:15;3.28;;;2.17;;
36449;SDS011;22475;51.390;7.180;2022-10-14T14:24:43;4.20;;;2.05;;
36449;SDS011;22475;51.390;7.180;2022-10-14T14:27:11;4.93;;;2.00;;
36449;SDS011;22475;51.390;7.180;2022-10-14T14:29:40;21.40;;;3.45;;
36449;SDS011;22475;51.390;7.180;2022-10-14T14:32:14;26.55;;;3.42;;
36449;SDS011;22475;51.390;7.180;2022-10-14T14:34:43;17.60;;;3.53;;
36449;SDS011;22475;51.390;7.180;2022-10-14T14:37:13;131.20;;;13.98;;
36449;SDS011;22475;51.390;7.180;2022-10-14T14:39:41;84.47;;;7.85;;
36449;SDS011;22475;51.390;7.180;2022-10-14T14:42:08;74.47;;;8.77;;
36449;SDS011;22475;51.390;7.180;2022-10-14T14:44:35;26.30;;;3.42;;
36449;SDS011;22475;51.390;7.180;2022-10-14T14:47:04;7.90;;;3.20;;
36449;SDS011;22475;51.390;7.180;2022-10-14T14:49:34;22.17;;;3.05;;
36449;SDS011;22475;51.390;7.180;2022-10-14T14:52:03;13.98;;;3.25;;
36449;SDS011;22475;51.390;7.180;2022-10-14T14:54:31;11.48;;;2.80;;
36449;SDS011;22475;51.390;7.180;2022-10-14T14:57:00;15.80;;;3.90;;
36449;SDS011;22475;51.390;7.180;2022-10-14T14:59:30;15.35;;;3.08;;
36449;SDS011;22475;51.390;7.180;2022-10-14T15:02:01;15.77;;;2.67;;
36449;SDS011;22475;51.390;7.180;2022-10-14T15:04:31;14.63;;;3.13;;
36449;SDS011;22475;51.390;7.180;2022-10-14T15:07:02;10.98;;;2.80;;
36449;SDS011;22475;51.390;7.180;2022-10-14T15:09:34;3.05;;;2.85;;
36449;SDS011;22475;51.390;7.180;2022-10-14T15:12:10;9.63;;;1.98;;
36449;SDS011;22475;51.390;7.180;2022-10-14T15:14:42;3.33;;;2.50;;
36449;SDS011;22475;51.390;7.180;2022-10-14T15:17:25;4.22;;;2.08;;
36449;SDS011;22475;51.390;7.180;2022-10-14T15:19:55;7.78;;;1.70;;
36449;SDS011;22475;51.390;7.180;2022-10-14T15:22:33;3.83;;;1.92;;
36449;SDS011;22475;51.390;7.180;2022-10-14T15:25:04;3.55;;;1.88;;
36449;SDS011;22475;51.390;7.180;2022-10-14T15:27:51;9.20;;;2.22;;
36449;SDS011;22475;51.390;7.180;2022-10-14T15:30:29;22.15;;;2.85;;
36449;SDS011;22475;51.390;7.180;2022-10-14T15:33:00;6.15;;;1.85;;